sensor_id;sensor_type;location;lat;lon;timestamp;temperature;humidity
5828;DHT22;42583;50.240;8.444;2023-05-29T00:00:04;16.20;47.00
5828;DHT22;42583;50.240;8.444;2023-05-29T00:15:09;16.10;47.00
5828;DHT22;42583;50.240;8.444;2023-05-29T00:30:12;16.10;47.10
5828;DHT22;42583;50.240;8.444;2023-05-29T00:45:13;16.00;46.90
5828;DHT22;42583;50.240;8.444;2023-05-29T01:00:14;15.90;47.30
5828;DHT22;42583;50.240;8.444;2023-05-29T01:30:25;15.80;47.40
5828;DHT22;42583;50.240;8.444;2023-05-29T01:45:29;15.60;48.00
5828;DHT22;42583;50.240;8.444;2023-05-29T02:00:31;15.30;49.20
5828;DHT22;42583;50.240;8.444;2023-05-29T02:15:31;15.00;50.90
5828;DHT22;42583;50.240;8.444;2023-05-29T02:30:32;14.60;51.30
5828;DHT22;42583;50.240;8.444;2023-05-29T02:45:33;14.40;52.50
5828;DHT22;42583;50.240;8.444;2023-05-29T03:00:33;14.10;53.50
5828;DHT22;42583;50.240;8.444;2023-05-29T03:15:38;13.80;55.00
5828;DHT22;42583;50.240;8.444;2023-05-29T03:30:38;13.50;57.10
5828;DHT22;42583;50.240;8.444;2023-05-29T03:45:39;13.20;58.40
5828;DHT22;42583;50.240;8.444;2023-05-29T04:00:39;13.00;61.00
5828;DHT22;42583;50.240;8.444;2023-05-29T04:15:40;12.80;65.30
5828;DHT22;42583;50.240;8.444;2023-05-29T04:30:42;12.70;69.70
5828;DHT22;42583;50.240;8.444;2023-05-29T04:45:43;12.60;74.60
5828;DHT22;42583;50.240;8.444;2023-05-29T05:00:44;12.60;79.80
5828;DHT22;42583;50.240;8.444;2023-05-29T05:15:45;12.70;84.40
5828;DHT22;42583;50.240;8.444;2023-05-29T05:30:47;12.70;88.30
5828;DHT22;42583;50.240;8.444;2023-05-29T05:45:51;12.80;90.40
5828;DHT22;42583;50.240;8.444;2023-05-29T06:00:52;13.10;90.60
5828;DHT22;42583;50.240;8.444;2023-05-29T06:15:52;13.30;90.80
5828;DHT22;42583;50.240;8.444;2023-05-29T06:30:54;13.70;90.20
5828;DHT22;42583;50.240;8.444;2023-05-29T06:45:55;14.30;87.30
5828;DHT22;42583;50.240;8.444;2023-05-29T07:00:57;14.90;83.20
5828;DHT22;42583;50.240;8.444;2023-05-29T07:15:57;15.80;81.50
5828;DHT22;42583;50.240;8.444;2023-05-29T07:30:58;16.70;78.20
5828;DHT22;42583;50.240;8.444;2023-05-29T07:46:02;17.30;73.90
5828;DHT22;42583;50.240;8.444;2023-05-29T08:01:03;17.80;71.40
5828;DHT22;42583;50.240;8.444;2023-05-29T08:16:05;18.40;68.50
5828;DHT22;42583;50.240;8.444;2023-05-29T08:31:11;18.90;63.20
5828;DHT22;42583;50.240;8.444;2023-05-29T08:46:13;19.70;63.20
5828;DHT22;42583;50.240;8.444;2023-05-29T09:01:15;20.40;59.90
5828;DHT22;42583;50.240;8.444;2023-05-29T09:16:19;20.90;55.90
5828;DHT22;42583;50.240;8.444;2023-05-29T09:31:21;21.00;51.90
5828;DHT22;42583;50.240;8.444;2023-05-29T09:46:21;21.60;51.90
5828;DHT22;42583;50.240;8.444;2023-05-29T10:01:23;22.30;52.00
5828;DHT22;42583;50.240;8.444;2023-05-29T10:16:25;22.80;49.80
5828;DHT22;42583;50.240;8.444;2023-05-29T10:31:33;23.30;48.80
5828;DHT22;42583;50.240;8.444;2023-05-29T11:01:45;24.00;44.60
5828;DHT22;42583;50.240;8.444;2023-05-29T11:16:45;24.00;41.70
5828;DHT22;42583;50.240;8.444;2023-05-29T11:31:46;23.90;42.20
5828;DHT22;42583;50.240;8.444;2023-05-29T11:47:04;25.00;42.50
5828;DHT22;42583;50.240;8.444;2023-05-29T12:02:06;25.50;41.40
5828;DHT22;42583;50.240;8.444;2023-05-29T12:17:07;25.70;39.70
5828;DHT22;42583;50.240;8.444;2023-05-29T12:32:11;26.30;39.70
5828;DHT22;42583;50.240;8.444;2023-05-29T12:47:23;26.00;38.10
5828;DHT22;42583;50.240;8.444;2023-05-29T13:02:23;26.30;38.10
5828;DHT22;42583;50.240;8.444;2023-05-29T13:17:24;26.50;37.10
5828;DHT22;42583;50.240;8.444;2023-05-29T13:32:25;26.60;36.70
5828;DHT22;42583;50.240;8.444;2023-05-29T13:47:25;26.30;37.50
5828;DHT22;42583;50.240;8.444;2023-05-29T14:02:35;26.40;37.20
5828;DHT22;42583;50.240;8.444;2023-05-29T14:17:39;26.10;37.60
5828;DHT22;42583;50.240;8.444;2023-05-29T14:32:39;26.20;37.20
5828;DHT22;42583;50.240;8.444;2023-05-29T14:47:42;25.60;36.80
5828;DHT22;42583;50.240;8.444;2023-05-29T15:02:42;25.00;37.80
5828;DHT22;42583;50.240;8.444;2023-05-29T15:17:43;24.50;37.80
5828;DHT22;42583;50.240;8.444;2023-05-29T15:32:49;24.00;38.80
5828;DHT22;42583;50.240;8.444;2023-05-29T15:47:51;23.70;39.40
5828;DHT22;42583;50.240;8.444;2023-05-29T16:02:52;23.50;40.00
5828;DHT22;42583;50.240;8.444;2023-05-29T16:17:53;23.20;41.10
5828;DHT22;42583;50.240;8.444;2023-05-29T16:32:54;23.00;41.30
5828;DHT22;42583;50.240;8.444;2023-05-29T16:47:55;22.70;42.10
5828;DHT22;42583;50.240;8.444;2023-05-29T17:02:58;22.20;43.40
5828;DHT22;42583;50.240;8.444;2023-05-29T17:18:01;21.90;44.30
5828;DHT22;42583;50.240;8.444;2023-05-29T17:33:02;21.40;45.00
5828;DHT22;42583;50.240;8.444;2023-05-29T17:48:04;21.10;46.90
5828;DHT22;42583;50.240;8.444;2023-05-29T18:03:04;20.70;47.70
5828;DHT22;42583;50.240;8.444;2023-05-29T18:18:06;20.30;48.80
5828;DHT22;42583;50.240;8.444;2023-05-29T18:33:07;19.90;49.90
5828;DHT22;42583;50.240;8.444;2023-05-29T18:48:08;19.50;50.70
5828;DHT22;42583;50.240;8.444;2023-05-29T19:03:08;19.20;51.50
5828;DHT22;42583;50.240;8.444;2023-05-29T19:18:09;18.70;52.00
5828;DHT22;42583;50.240;8.444;2023-05-29T19:33:09;18.30;53.00
5828;DHT22;42583;50.240;8.444;2023-05-29T19:48:10;17.90;53.60
5828;DHT22;42583;50.240;8.444;2023-05-29T20:03:11;17.40;54.40
5828;DHT22;42583;50.240;8.444;2023-05-29T20:18:11;17.00;55.10
5828;DHT22;42583;50.240;8.444;2023-05-29T20:33:18;16.70;55.30
5828;DHT22;42583;50.240;8.444;2023-05-29T20:48:19;16.40;55.60
5828;DHT22;42583;50.240;8.444;2023-05-29T21:03:20;16.10;56.10
5828;DHT22;42583;50.240;8.444;2023-05-29T21:18:23;15.80;56.50
5828;DHT22;42583;50.240;8.444;2023-05-29T21:33:26;15.60;56.70
5828;DHT22;42583;50.240;8.444;2023-05-29T21:48:26;15.30;57.20
5828;DHT22;42583;50.240;8.444;2023-05-29T22:03:27;15.00;57.60
5828;DHT22;42583;50.240;8.444;2023-05-29T22:18:27;14.70;57.50
5828;DHT22;42583;50.240;8.444;2023-05-29T22:33:28;14.50;57.10
5828;DHT22;42583;50.240;8.444;2023-05-29T22:48:30;14.30;56.20
5828;DHT22;42583;50.240;8.444;2023-05-29T23:03:33;14.10;55.10
5828;DHT22;42583;50.240;8.444;2023-05-29T23:18:34;13.90;53.80
5828;DHT22;42583;50.240;8.444;2023-05-29T23:33:35;13.80;53.00
5828;DHT22;42583;50.240;8.444;2023-05-29T23:49:02;13.50;53.00
